• Join FlightAware (Why Join?)
  • Login
  • US Flag 
08:16AM EDT


 

Airport Tracker/Info


-or-


 

Live Flight TrackerFlight Track Log ✈ N102WY ✈ 08-May-2013 ✈ W43 - KLAR

Flight Track Log - Related Links

Times and Time Zones

All times are in EDT time to prevent confusion due to time zone crossing. See the N102WY flight status page for this flight to view local times or setup timezone preferences in your user account.

Time Position Orientation Groundspeed Altitude Reporting Facility
EDT Latitude Longitude Course Direction KTS MPH feet Rate Location/Type
06:22PM 44.5631 -104.8050 191° South 303 349 13,900  Level Denver Center
06:23PM 44.4667 -104.8308 191° South 313 360 16,600 1,740 Climbing Denver Center
06:24PM 44.3936 -104.9028 215° Southwest 337 388 17,500 420 Climbing Denver Center
06:25PM 44.2964 -104.9511 200° South 334 384 17,500 480 Level Denver Center
06:26PM 44.2136 -104.9686 189° South 319 367 18,500 1,740 Climbing Denver Center
06:27PM 44.1136 -104.9939 190° South 325 374 21,100 2,400 Climbing Denver Center
06:28PM 44.0222 -105.0186 191° South 343 395 23,500 2,220 Climbing Denver Center
06:29PM 43.9142 -105.0464 190° South 353 406 25,800 1,200 Climbing Denver Center
06:30PM 43.8183 -105.0686 189° South 361 415 26,000 60 Climbing Denver Center
06:31PM 43.7097 -105.0975 191° South 358 412 26,000 960 Level Denver Center
06:32PM 43.6169 -105.1203 190° South 355 409 28,100 2,460 Climbing Denver Center
06:33PM 43.5103 -105.1458 190° South 352 405 31,100 2,460 Climbing Denver Center
06:34PM 43.4206 -105.1697 191° South 345 397 33,300 1,380 Climbing Denver Center
06:35PM 43.3297 -105.1911 190° South 346 398 34,000 300 Climbing Denver Center
06:36PM 43.2169 -105.2203 191° South 363 418 34,000  Level Denver Center
06:37PM 43.1392 -105.2461 194° South 363 418 34,000  Level Denver Center
06:38PM 43.0128 -105.2836 192° South 364 419 34,000  Level Denver Center
06:39PM 42.9200 -105.3111 192° South 361 415 34,000  Level Denver Center
06:40PM 42.8119 -105.3447 193° South 359 413 34,000  Level Denver Center
06:41PM 42.7197 -105.3711 192° South 357 411 34,000  Level Denver Center
06:42PM 42.6119 -105.4033 192° South 357 411 34,000 -300 Level Denver Center
06:43PM 42.5197 -105.4314 193° South 355 409 33,400 -1,080 Descending Denver Center
06:44PM 42.4075 -105.4650 192° South 367 422 31,800 -1,500 Descending Denver Center
06:46PM 42.3131 -105.4908 191° South 366 421 30,400 -1,740 Descending Denver Center
06:47PM 42.2086 -105.5217 192° South 345 397 28,300 -1,680 Descending Denver Center
06:48PM 42.1253 -105.5450 192° South 324 373 27,000 -1,800 Descending Denver Center
06:49PM 42.0342 -105.5731 193° South 304 350 24,700 -2,100 Descending Denver Center
06:50PM 41.9542 -105.5958 192° South 305 351 22,700 -2,220 Descending Denver Center
06:51PM 41.8625 -105.6217 192° South 302 348 20,200 -2,220 Descending Denver Center
06:52PM 41.7864 -105.6500 196° South 298 343 18,200 -1,920 Descending Denver Center
06:53PM 41.7144 -105.6756 195° South 286 329 16,300 -1,860 Descending Denver Center